createdAt,value
2022-09-23T00:02:06.552Z,6.88
2022-09-23T00:04:33.182Z,10.20
2022-09-23T00:06:59.653Z,6.38
2022-09-23T00:09:26.145Z,7.05
2022-09-23T00:11:52.610Z,7.27
2022-09-23T00:14:19.091Z,5.85
2022-09-23T00:16:45.611Z,6.55
2022-09-23T00:19:12.129Z,6.88
2022-09-23T00:21:38.609Z,7.57
2022-09-23T00:24:05.321Z,6.53
2022-09-23T00:26:31.846Z,6.63
2022-09-23T00:28:58.419Z,5.97
2022-09-23T00:31:27.312Z,6.25
2022-09-23T00:33:56.701Z,6.55
2022-09-23T00:36:23.860Z,8.87
2022-09-23T00:38:50.373Z,5.10
2022-09-23T00:41:17.188Z,6.43
2022-09-23T00:43:52.213Z,5.03
2022-09-23T00:46:23.463Z,5.55
2022-09-23T00:48:55.360Z,5.80
2022-09-23T00:51:24.823Z,5.57
2022-09-23T00:53:53.455Z,5.53
2022-09-23T00:56:23.018Z,6.07
2022-09-23T00:58:51.778Z,5.18
2022-09-23T01:01:19.815Z,5.63
2022-09-23T01:03:46.721Z,6.80
2022-09-23T01:06:13.894Z,4.53
2022-09-23T01:08:44.205Z,6.32
2022-09-23T01:11:28.114Z,6.53
2022-09-23T01:14:13.308Z,6.00
2022-09-23T01:16:54.574Z,5.35
2022-09-23T01:19:36.500Z,6.57
2022-09-23T01:22:13.391Z,9.18
2022-09-23T01:25:13.153Z,4.88
2022-09-23T01:27:47.575Z,5.73
2022-09-23T01:30:38.695Z,5.57
2022-09-23T01:33:06.210Z,4.45
2022-09-23T01:35:52.285Z,5.55
2022-09-23T01:38:36.268Z,5.32
2022-09-23T01:41:16.255Z,5.10
2022-09-23T01:43:46.744Z,7.00
2022-09-23T01:46:27.980Z,5.28
2022-09-23T01:49:03.983Z,7.68
2022-09-23T01:51:37.462Z,5.93
2022-09-23T01:54:19.922Z,6.63
2022-09-23T01:56:54.645Z,6.35
2022-09-23T01:59:27.891Z,5.38
2022-09-23T02:02:02.989Z,4.85
2022-09-23T02:04:39.842Z,4.32
2022-09-23T02:07:21.392Z,4.50
2022-09-23T02:09:56.188Z,5.25
2022-09-23T02:12:29.513Z,6.50
2022-09-23T02:15:06.356Z,5.95
2022-09-23T02:17:40.171Z,6.50
2022-09-23T02:20:08.589Z,3.97
2022-09-23T02:22:41.163Z,4.45
2022-09-23T02:25:10.641Z,5.32
2022-09-23T02:27:41.323Z,4.68
2022-09-23T02:30:12.982Z,4.68
2022-09-23T02:32:51.894Z,5.20
2022-09-23T02:35:32.861Z,4.40
2022-09-23T02:38:18.755Z,3.85
2022-09-23T02:40:46.213Z,4.68
2022-09-23T02:43:19.882Z,5.22
2022-09-23T02:45:47.384Z,4.87
2022-09-23T02:48:19.415Z,5.85
2022-09-23T02:50:47.705Z,4.13
2022-09-23T02:53:16.170Z,6.15
2022-09-23T02:55:42.991Z,4.72
2022-09-23T02:58:12.888Z,5.03
2022-09-23T03:00:57.401Z,4.38
2022-09-23T03:04:05.307Z,5.10
2022-09-23T03:06:44.605Z,6.22
2022-09-23T03:09:21.584Z,4.18
2022-09-23T03:11:53.198Z,4.87
2022-09-23T03:14:22.673Z,4.93
2022-09-23T03:17:04.694Z,5.20
2022-09-23T03:19:38.093Z,4.90
2022-09-23T03:22:27.671Z,5.10
2022-09-23T03:24:58.590Z,5.90
2022-09-23T03:27:30.104Z,7.53
2022-09-23T03:29:57.552Z,7.32
2022-09-23T03:32:27.970Z,7.63
2022-09-23T03:34:58.340Z,4.93
2022-09-23T03:37:32.429Z,7.57
2022-09-23T03:40:09.345Z,6.05
2022-09-23T03:42:38.170Z,5.30
2022-09-23T03:45:10.583Z,5.15
2022-09-23T03:47:39.337Z,7.13
2022-09-23T03:50:06.426Z,4.90
2022-09-23T03:52:32.883Z,6.03
2022-09-23T03:54:59.453Z,5.80
2022-09-23T03:57:26.094Z,5.85
2022-09-23T03:59:52.916Z,5.70
2022-09-23T04:02:20.548Z,6.67
2022-09-23T04:04:47.308Z,4.55
2022-09-23T04:07:14.747Z,5.05
2022-09-23T04:09:41.632Z,4.97
2022-09-23T04:12:11.719Z,5.30
2022-09-23T04:14:38.382Z,5.87
2022-09-23T04:17:05.049Z,6.75
2022-09-23T04:19:31.526Z,5.28
2022-09-23T04:21:58.092Z,5.22
2022-09-23T04:24:24.671Z,6.38
2022-09-23T04:26:53.476Z,7.63
2022-09-23T04:29:20.625Z,5.78
2022-09-23T04:31:47.807Z,7.85
2022-09-23T04:34:15.954Z,6.15
2022-09-23T04:36:42.828Z,6.80
2022-09-23T04:39:09.327Z,6.57
2022-09-23T04:41:35.904Z,7.13
2022-09-23T04:44:02.838Z,5.40
2022-09-23T04:46:29.472Z,6.05
2022-09-23T04:48:55.957Z,5.22
2022-09-23T04:51:24.852Z,7.10
2022-09-23T04:53:53.116Z,6.82
2022-09-23T04:56:22.742Z,6.18
2022-09-23T04:58:50.737Z,8.10
2022-09-23T05:01:25.690Z,8.40
2022-09-23T05:03:54.359Z,5.17
2022-09-23T05:06:22.020Z,6.45
2022-09-23T05:08:51.056Z,4.53
2022-09-23T05:11:18.724Z,6.13
2022-09-23T05:13:50.497Z,7.93
2022-09-23T05:16:17.805Z,7.50
2022-09-23T05:18:45.903Z,8.68
2022-09-23T05:21:14.261Z,9.32
2022-09-23T05:23:41.987Z,10.00
2022-09-23T05:26:11.181Z,12.57
2022-09-23T05:28:39.340Z,8.67
2022-09-23T05:31:08.746Z,9.93
2022-09-23T05:33:37.005Z,12.40
2022-09-23T05:36:04.143Z,10.55
2022-09-23T05:38:31.763Z,10.00
2022-09-23T05:41:00.253Z,16.83
2022-09-23T05:43:27.416Z,12.48
2022-09-23T05:46:07.745Z,9.77
2022-09-23T05:48:35.910Z,8.60
2022-09-23T05:51:03.026Z,9.05
2022-09-23T05:53:31.736Z,8.47
2022-09-23T05:55:58.322Z,8.68
2022-09-23T05:58:25.468Z,12.10
2022-09-23T06:00:52.353Z,9.00
2022-09-23T06:03:20.613Z,9.82
2022-09-23T06:05:48.466Z,9.23
2022-09-23T06:08:15.457Z,9.90
2022-09-23T06:10:44.646Z,10.45
2022-09-23T06:13:11.583Z,7.78
2022-09-23T06:15:39.302Z,8.23
2022-09-23T06:18:06.617Z,10.17
2022-09-23T06:20:35.478Z,9.23
2022-09-23T06:23:08.810Z,8.68
2022-09-23T06:25:39.434Z,9.18
2022-09-23T06:28:11.301Z,9.73
2022-09-23T06:30:39.356Z,9.60
2022-09-23T06:33:05.853Z,14.48
2022-09-23T06:35:33.374Z,13.18
2022-09-23T06:38:03.828Z,12.90
2022-09-23T06:40:31.382Z,8.85
2022-09-23T06:43:00.986Z,8.07
2022-09-23T06:45:28.613Z,8.82
2022-09-23T06:47:56.768Z,8.77
2022-09-23T06:50:26.364Z,12.20
2022-09-23T06:52:56.082Z,10.88
2022-09-23T06:55:24.865Z,26.03
2022-09-23T06:57:51.437Z,35.10
2022-09-23T07:00:18.398Z,23.27
2022-09-23T07:02:45.198Z,26.27
2022-09-23T07:05:12.216Z,12.75
2022-09-23T07:07:39.423Z,15.30
2022-09-23T07:10:06.808Z,22.38
2022-09-23T07:12:34.221Z,15.02
2022-09-23T07:15:01.017Z,13.13
2022-09-23T07:17:27.907Z,13.48
2022-09-23T07:19:55.051Z,10.70
2022-09-23T07:22:23.357Z,9.68
2022-09-23T07:24:49.948Z,11.13
2022-09-23T07:27:19.399Z,14.95
2022-09-23T07:29:48.987Z,11.68
2022-09-23T07:32:16.699Z,10.30
2022-09-23T07:34:43.339Z,11.07
2022-09-23T07:37:10.661Z,13.85
2022-09-23T07:39:37.457Z,12.55
2022-09-23T07:42:05.294Z,14.50
2022-09-23T07:44:33.034Z,13.43
2022-09-23T07:47:00.419Z,15.02
2022-09-23T07:49:27.706Z,16.38
2022-09-23T07:51:54.265Z,13.02
2022-09-23T07:54:21.538Z,14.07
2022-09-23T07:56:48.209Z,15.50
2022-09-23T07:59:18.231Z,12.23
2022-09-23T08:01:48.477Z,12.85
2022-09-23T08:04:23.015Z,17.70
2022-09-23T08:06:55.100Z,11.30
2022-09-23T08:09:25.250Z,13.17
2022-09-23T08:11:52.530Z,12.40
2022-09-23T08:14:19.333Z,13.45
2022-09-23T08:16:47.194Z,12.68
2022-09-23T08:19:14.663Z,13.63
2022-09-23T08:21:41.996Z,11.87
2022-09-23T08:24:12.621Z,12.52
2022-09-23T08:26:39.175Z,10.50
2022-09-23T08:29:06.867Z,10.50
2022-09-23T08:31:33.493Z,12.43
2022-09-23T08:34:00.208Z,11.53
2022-09-23T08:36:27.187Z,10.85
2022-09-23T08:38:55.310Z,10.15
2022-09-23T08:41:28.049Z,12.52
2022-09-23T08:43:59.402Z,11.15
2022-09-23T08:46:31.849Z,11.20
2022-09-23T08:49:00.412Z,12.27
2022-09-23T08:51:44.744Z,10.45
2022-09-23T08:54:12.789Z,9.25
2022-09-23T08:56:43.581Z,10.32
2022-09-23T08:59:21.258Z,12.10
2022-09-23T09:01:56.996Z,9.77
2022-09-23T09:04:46.097Z,9.65
2022-09-23T09:10:14.543Z,9.02
2022-09-23T09:12:49.382Z,7.80
2022-09-23T09:15:24.637Z,9.00
2022-09-23T09:18:08.033Z,10.98
2022-09-23T09:20:40.214Z,8.82
2022-09-23T09:23:21.601Z,8.90
2022-09-23T09:25:50.923Z,8.67
2022-09-23T09:28:31.092Z,7.82
2022-09-23T09:31:01.609Z,8.77
2022-09-23T09:33:38.335Z,8.57
2022-09-23T09:36:20.877Z,6.97
2022-09-23T09:38:47.408Z,6.40
2022-09-23T09:41:17.861Z,8.02
2022-09-23T09:43:56.358Z,6.40
2022-09-23T09:46:24.951Z,7.65
2022-09-23T09:48:53.665Z,9.27
2022-09-23T09:51:22.490Z,6.33
2022-09-23T09:53:52.135Z,7.28
2022-09-23T09:56:26.840Z,10.40
2022-09-23T09:58:58.703Z,6.70
2022-09-23T10:01:28.873Z,6.80
2022-09-23T10:03:59.501Z,9.50
2022-09-23T10:06:32.591Z,7.82
2022-09-23T10:09:03.314Z,8.13
2022-09-23T10:11:31.082Z,8.15
2022-09-23T10:14:01.121Z,8.13
2022-09-23T10:16:31.620Z,8.90
2022-09-23T10:19:00.410Z,8.02
2022-09-23T10:21:34.761Z,6.70
2022-09-23T10:24:05.616Z,6.03
2022-09-23T10:26:42.624Z,8.90
2022-09-23T10:29:24.274Z,9.07
2022-09-23T10:32:22.611Z,6.22
2022-09-23T10:35:08.994Z,5.43
2022-09-23T10:38:33.611Z,6.63
2022-09-23T10:41:20.840Z,6.65
2022-09-23T10:44:11.662Z,6.47
2022-09-23T10:46:47.147Z,6.72
2022-09-23T10:49:41.170Z,7.22
2022-09-23T10:52:15.044Z,5.05
2022-09-23T10:55:00.908Z,8.15
2022-09-23T10:57:46.996Z,6.30
2022-09-23T11:00:22.228Z,5.72
2022-09-23T11:03:00.307Z,9.00
2022-09-23T11:05:41.416Z,5.32
2022-09-23T11:08:36.394Z,10.65
2022-09-23T11:11:18.880Z,5.90
2022-09-23T11:14:08.106Z,6.78
2022-09-23T11:16:43.086Z,7.95
2022-09-23T11:19:26.387Z,9.00
2022-09-23T11:21:56.145Z,4.90
2022-09-23T11:24:58.624Z,7.37
2022-09-23T11:27:47.128Z,7.30
2022-09-23T11:30:20.160Z,6.65
2022-09-23T11:35:47.729Z,5.95
2022-09-23T11:38:21.411Z,6.90
2022-09-23T11:40:54.771Z,5.63
2022-09-23T11:43:29.229Z,9.10
2022-09-23T11:46:10.548Z,5.22
2022-09-23T11:48:45.755Z,5.43
2022-09-23T11:51:17.958Z,6.00
2022-09-23T11:53:47.373Z,5.13
2022-09-23T11:56:35.496Z,8.43
2022-09-23T11:59:36.123Z,5.93
2022-09-23T12:02:20.747Z,8.48
2022-09-23T12:04:58.648Z,6.90
2022-09-23T12:07:44.527Z,6.80
2022-09-23T12:10:11.983Z,6.28
2022-09-23T12:12:58.404Z,5.22
2022-09-23T12:15:37.407Z,6.25
2022-09-23T12:18:11.473Z,4.83
2022-09-23T12:21:02.896Z,5.05
2022-09-23T12:23:41.835Z,9.07
2022-09-23T12:26:17.271Z,4.60
2022-09-23T12:28:49.032Z,4.93
2022-09-23T12:31:21.911Z,3.70
2022-09-23T12:33:55.147Z,4.40
2022-09-23T12:36:29.784Z,4.50
2022-09-23T12:39:16.270Z,4.75
2022-09-23T12:41:46.349Z,4.75
2022-09-23T12:44:14.788Z,5.33
2022-09-23T12:46:43.725Z,5.35
2022-09-23T12:49:30.068Z,4.50
2022-09-23T12:52:27.056Z,4.10
2022-09-23T12:55:19.036Z,3.22
2022-09-23T12:57:45.690Z,6.03
2022-09-23T13:00:13.535Z,3.40
2022-09-23T13:03:10.759Z,6.00
2022-09-23T13:06:09.263Z,2.70
2022-09-23T13:08:39.083Z,4.68
2022-09-23T13:11:14.889Z,3.87
2022-09-23T13:13:44.654Z,5.97
2022-09-23T13:16:29.295Z,3.58
2022-09-23T13:19:03.338Z,4.97
2022-09-23T13:21:43.079Z,3.78
2022-09-23T13:24:13.693Z,5.03
2022-09-23T13:26:45.789Z,6.88
2022-09-23T13:29:20.711Z,4.53
2022-09-23T13:31:47.762Z,3.22
2022-09-23T13:34:19.633Z,4.50
2022-09-23T13:36:48.128Z,3.53
2022-09-23T13:39:22.601Z,4.57
2022-09-23T13:41:51.905Z,3.55
2022-09-23T13:44:20.179Z,4.03
2022-09-23T13:46:51.450Z,5.80
2022-09-23T13:49:24.402Z,4.43
2022-09-23T13:51:53.482Z,4.47
2022-09-23T13:54:33.441Z,3.88
2022-09-23T13:57:00.548Z,4.20
2022-09-23T13:59:30.239Z,3.92
2022-09-23T14:02:06.863Z,3.63
2022-09-23T14:04:33.524Z,4.30
2022-09-23T14:07:01.505Z,3.92
2022-09-23T14:09:30.328Z,4.18
2022-09-23T14:11:59.677Z,9.18
2022-09-23T14:14:28.152Z,4.93
2022-09-23T14:16:56.149Z,6.78
2022-09-23T14:19:24.859Z,4.53
2022-09-23T14:21:53.741Z,4.63
2022-09-23T14:24:30.464Z,4.30
2022-09-23T14:27:10.900Z,6.03
2022-09-23T14:29:40.488Z,4.03
2022-09-23T14:32:13.473Z,4.75
2022-09-23T14:34:43.949Z,6.40
2022-09-23T14:37:42.636Z,8.95
2022-09-23T14:40:19.023Z,7.10
2022-09-23T14:42:51.434Z,5.18
2022-09-23T14:45:24.637Z,6.85
2022-09-23T14:47:58.033Z,4.47
2022-09-23T14:50:37.127Z,7.75
2022-09-23T14:53:04.736Z,3.67
2022-09-23T14:55:31.520Z,5.75
2022-09-23T14:58:05.159Z,6.90
2022-09-23T15:00:32.151Z,4.07
2022-09-23T15:03:02.702Z,7.15
2022-09-23T15:05:40.246Z,5.03
2022-09-23T15:08:07.398Z,9.35
2022-09-23T15:10:37.582Z,4.90
2022-09-23T15:13:11.534Z,8.40
2022-09-23T15:15:38.297Z,6.05
2022-09-23T15:18:11.332Z,7.67
2022-09-23T15:20:37.990Z,5.85
2022-09-23T15:23:04.562Z,8.15
2022-09-23T15:25:40.273Z,6.38
2022-09-23T15:28:10.671Z,5.28
2022-09-23T15:30:39.041Z,5.07
2022-09-23T15:33:06.392Z,6.97
2022-09-23T15:35:33.403Z,6.63
2022-09-23T15:38:02.760Z,6.15
2022-09-23T15:40:33.805Z,6.32
2022-09-23T15:43:07.625Z,7.10
2022-09-23T15:45:38.431Z,5.75
2022-09-23T15:48:10.753Z,8.57
2022-09-23T15:50:38.080Z,6.70
2022-09-23T15:53:07.286Z,6.03
2022-09-23T15:55:35.965Z,5.53
2022-09-23T15:58:03.143Z,5.50
2022-09-23T16:00:30.606Z,7.63
2022-09-23T16:02:57.234Z,6.18
2022-09-23T16:05:33.143Z,6.00
2022-09-23T16:08:03.727Z,4.97
2022-09-23T16:10:34.081Z,6.57
2022-09-23T16:13:03.026Z,8.18
2022-09-23T16:15:31.808Z,6.68
2022-09-23T16:20:50.262Z,7.63
2022-09-23T16:23:34.459Z,7.82
2022-09-23T16:26:21.804Z,6.97
2022-09-23T16:28:50.017Z,9.70
2022-09-23T16:31:16.637Z,5.78
2022-09-23T16:33:44.307Z,8.33
2022-09-23T16:36:31.969Z,6.53
2022-09-23T16:39:01.594Z,9.63
2022-09-23T16:41:29.748Z,10.02
2022-09-23T16:43:56.892Z,8.68
2022-09-23T16:46:24.890Z,7.23
2022-09-23T16:48:53.770Z,10.98
2022-09-23T16:51:23.894Z,11.98
2022-09-23T16:53:52.549Z,9.48
2022-09-23T16:56:25.810Z,10.25
2022-09-23T16:58:55.773Z,9.23
2022-09-23T17:01:44.319Z,11.23
2022-09-23T17:04:12.069Z,12.07
2022-09-23T17:07:02.731Z,10.40
2022-09-23T17:09:30.397Z,13.32
2022-09-23T17:12:09.357Z,11.33
2022-09-23T17:14:35.877Z,9.80
2022-09-23T17:17:02.457Z,12.38
2022-09-23T17:19:29.347Z,10.88
2022-09-23T17:21:56.360Z,10.55
2022-09-23T17:24:24.082Z,13.27
2022-09-23T17:26:53.381Z,10.90
2022-09-23T17:29:20.489Z,12.25
2022-09-23T17:31:47.221Z,12.60
2022-09-23T17:34:13.921Z,13.05
2022-09-23T17:36:40.616Z,11.20
2022-09-23T17:39:07.491Z,12.38
2022-09-23T17:41:34.203Z,11.88
2022-09-23T17:44:00.990Z,12.68
2022-09-23T17:46:30.091Z,11.43
2022-09-23T17:48:57.200Z,11.17
2022-09-23T17:51:25.347Z,13.90
2022-09-23T17:53:52.301Z,13.27
2022-09-23T17:56:26.556Z,12.05
2022-09-23T17:58:53.889Z,11.68
2022-09-23T18:01:23.952Z,14.83
2022-09-23T18:03:56.363Z,12.20
2022-09-23T18:06:25.653Z,15.20
2022-09-23T18:08:52.727Z,13.25
2022-09-23T18:11:21.177Z,13.93
2022-09-23T18:13:51.172Z,12.63
2022-09-23T18:16:18.351Z,16.55
2022-09-23T18:18:50.238Z,12.65
2022-09-23T18:21:16.878Z,13.75
2022-09-23T18:23:43.434Z,15.07
2022-09-23T18:26:15.419Z,16.83
2022-09-23T18:28:43.121Z,14.43
2022-09-23T18:31:10.844Z,15.65
2022-09-23T18:33:39.227Z,14.82
2022-09-23T18:36:06.211Z,15.20
2022-09-23T18:38:33.335Z,17.67
2022-09-23T18:41:00.560Z,16.42
2022-09-23T18:43:40.752Z,16.20
2022-09-23T18:46:13.435Z,17.20
2022-09-23T18:49:19.021Z,15.85
2022-09-23T18:51:50.979Z,18.63
2022-09-23T18:54:19.452Z,18.98
2022-09-23T18:56:47.767Z,16.23
2022-09-23T18:59:17.755Z,17.02
2022-09-23T19:01:45.934Z,19.58
2022-09-23T19:04:16.110Z,16.47
2022-09-23T19:06:42.783Z,19.73
2022-09-23T19:09:09.395Z,19.55
2022-09-23T19:11:36.573Z,17.90
2022-09-23T19:14:05.892Z,30.42
2022-09-23T19:16:34.182Z,26.53
2022-09-23T19:19:02.111Z,27.70
2022-09-23T19:21:30.877Z,23.02
2022-09-23T19:24:03.714Z,20.40
2022-09-23T19:26:34.296Z,20.23
2022-09-23T19:29:03.419Z,18.97
2022-09-23T19:31:33.487Z,20.85
2022-09-23T19:34:04.564Z,19.27
2022-09-23T19:36:34.614Z,21.73
2022-09-23T19:39:03.945Z,22.77
2022-09-23T19:41:32.164Z,21.87
2022-09-23T19:44:03.635Z,26.83
2022-09-23T19:46:32.046Z,19.60
2022-09-23T19:49:00.171Z,19.55
2022-09-23T19:51:27.550Z,19.88
2022-09-23T19:53:54.169Z,19.97
2022-09-23T19:56:20.684Z,17.83
2022-09-23T19:58:54.227Z,20.17
2022-09-23T20:01:21.935Z,18.42
2022-09-23T20:03:49.064Z,22.08
2022-09-23T20:06:16.652Z,21.53
2022-09-23T20:08:45.577Z,19.00
2022-09-23T20:11:15.000Z,20.90
2022-09-23T20:13:44.016Z,22.23
2022-09-23T20:16:13.919Z,21.65
2022-09-23T20:18:41.843Z,22.37
2022-09-23T20:21:11.947Z,22.55
2022-09-23T20:23:38.559Z,19.50
2022-09-23T20:26:24.540Z,22.45
2022-09-23T20:28:51.354Z,20.92
2022-09-23T20:31:20.790Z,21.97
2022-09-23T20:33:54.208Z,22.00
2022-09-23T20:36:21.605Z,22.38
2022-09-23T20:38:48.337Z,22.33
2022-09-23T20:41:17.221Z,22.42
2022-09-23T20:43:43.839Z,20.07
2022-09-23T20:46:10.356Z,21.50
2022-09-23T20:48:37.886Z,21.48
2022-09-23T20:51:06.847Z,20.58
2022-09-23T20:53:34.502Z,23.80
2022-09-23T20:56:01.527Z,23.43
2022-09-23T20:58:30.775Z,24.15
2022-09-23T21:01:05.603Z,23.92
2022-09-23T21:03:32.838Z,22.17
2022-09-23T21:06:06.932Z,22.10
2022-09-23T21:08:35.507Z,25.23
2022-09-23T21:11:04.955Z,21.48
2022-09-23T21:13:33.631Z,25.20
2022-09-23T21:16:05.589Z,25.17
2022-09-23T21:18:32.224Z,23.55
2022-09-23T21:21:00.855Z,23.97
2022-09-23T21:23:29.303Z,23.83
2022-09-23T21:26:07.477Z,26.98
2022-09-23T21:28:37.108Z,24.08
2022-09-23T21:31:06.972Z,23.42
2022-09-23T21:33:36.617Z,25.90
2022-09-23T21:36:05.652Z,25.48
2022-09-23T21:38:36.641Z,24.85
2022-09-23T21:41:06.668Z,24.48
2022-09-23T21:43:35.167Z,21.23
2022-09-23T21:46:05.112Z,24.53
2022-09-23T21:48:33.875Z,22.83
2022-09-23T21:51:04.570Z,26.77
2022-09-23T21:53:33.113Z,23.58
2022-09-23T21:56:03.570Z,22.77
2022-09-23T21:58:32.016Z,22.90
2022-09-23T22:00:58.873Z,22.92
2022-09-23T22:03:25.747Z,23.02
2022-09-23T22:06:03.809Z,21.02
2022-09-23T22:08:36.749Z,22.23
2022-09-23T22:11:05.682Z,22.00
2022-09-23T22:13:32.537Z,24.10
2022-09-23T22:16:02.218Z,23.63
2022-09-23T22:18:28.765Z,22.73
2022-09-23T22:20:57.795Z,21.45
2022-09-23T22:23:24.968Z,24.20
2022-09-23T22:26:02.122Z,23.80
2022-09-23T22:28:50.331Z,23.77
2022-09-23T22:31:35.589Z,22.83
2022-09-23T22:34:02.107Z,24.70
2022-09-23T22:36:28.599Z,23.13
2022-09-23T22:38:59.031Z,26.25
2022-09-23T22:41:26.279Z,24.48
2022-09-23T22:43:53.858Z,26.80
2022-09-23T22:46:22.745Z,24.65
2022-09-23T22:48:52.215Z,24.93
2022-09-23T22:51:22.224Z,25.38
2022-09-23T22:53:49.489Z,23.83
2022-09-23T22:56:16.197Z,23.58
2022-09-23T22:58:42.972Z,24.55
2022-09-23T23:01:11.803Z,25.77
2022-09-23T23:03:40.297Z,23.73
2022-09-23T23:06:08.808Z,28.67
2022-09-23T23:08:36.181Z,26.00
2022-09-23T23:11:09.957Z,27.55
2022-09-23T23:13:39.186Z,26.67
2022-09-23T23:16:07.187Z,26.00
2022-09-23T23:18:35.752Z,27.02
2022-09-23T23:21:08.798Z,29.80
2022-09-23T23:23:38.425Z,25.83
2022-09-23T23:26:09.821Z,29.27
2022-09-23T23:28:36.511Z,26.88
2022-09-23T23:31:04.795Z,26.80
2022-09-23T23:33:31.648Z,29.10
2022-09-23T23:35:58.125Z,26.67
2022-09-23T23:38:24.903Z,27.63
2022-09-23T23:40:52.599Z,29.90
2022-09-23T23:43:19.820Z,27.83
2022-09-23T23:45:46.596Z,27.17
2022-09-23T23:48:13.529Z,31.55
2022-09-23T23:50:40.074Z,28.77
2022-09-23T23:53:06.593Z,27.73
2022-09-23T23:55:38.126Z,33.15
2022-09-23T23:58:04.592Z,34.25
